LTAF/ADA METAR and TAF weather

Enter ICAO airport designator
Station Type Date Time Source
LTAF METAR 2020/03/29 10:50 UTC NOAA

LTAF 291050Z 22015KT 9999 BKN035 19/11 Q1005 TEMPO FM1200 -TSRA


Station Type Date Time Source
LTAF Decoded METAR 2020/03/29 10:50 UTC NOAA

Adana / Sakirpasa, Turkey (LTAF) 36-59N 035-18E 20M
Mar 29, 2020 - 06:50 AM EDT / 2020.03.29 1050 UTC
Wind: from the SW (220 degrees) at 17 MPH (15 KT):0
Visibility: greater than 7 mile(s):0
Sky conditions: mostly cloudy
Temperature: 66 F (19 C)
Dew Point: 51 F (11 C)
Relative Humidity: 59%
Pressure (altimeter): 29.68 in. Hg (1005 hPa)
ob: LTAF 291050Z 22015KT 9999 BKN035 19/11 Q1005 TEMPO FM1200 -TSRA
cycle: 11

Station Type Date Time Source
LTAF TAF 2020/03/29 12:01 UTC NOAA

TAF LTAF 291040Z 2912/3012 21012KT 9999 SCT030 BKN100
TEMPO 2912/2916 VRB15G25KT -TSRA SCT020CB BKN030 PROB30
TEMPO 2916/2920 -TSRA FEW020CB BKN030
BECMG 2919/2921 VRB02KT

Example: see airport list